Time;durP1;ratioP1;P1;durP2;ratioP2;P2;SDS_P1;SDS_P2;PMS_P1;PMS_P2;Temp;Humidity;BMP_temperature;BMP_pressure;BME280_temperature;BME280_humidity;BME280_pressure;Samples;Min_cycle;Max_cycle;Signal;HPM_P1;HPM_P2
2021/01/30 00:02:23;;;;;;;12.35;4.50;;;8.00;96.70;;;;;;4976842;28;20050;-86
2021/01/30 00:04:49;;;;;;;4.70;2.13;;;7.90;96.60;;;;;;4979936;28;20022;-86
2021/01/30 00:07:15;;;;;;;8.45;2.63;;;7.90;96.60;;;;;;4982175;28;20027;-86
2021/01/30 00:09:41;;;;;;;8.20;2.55;;;7.90;96.60;;;;;;4975823;28;20038;-86
2021/01/30 00:12:07;;;;;;;4.57;2.20;;;7.90;96.50;;;;;;4975849;28;20023;-84
2021/01/30 00:14:36;;;;;;;5.90;2.28;;;7.80;96.50;;;;;;4975477;28;20034;-84
2021/01/30 00:17:05;;;;;;;3.72;1.98;;;7.90;96.60;;;;;;4975401;28;20483;-84
2021/01/30 00:19:31;;;;;;;3.22;1.80;;;7.80;96.50;;;;;;4976383;28;20067;-84
2021/01/30 00:22:01;;;;;;;5.35;2.00;;;7.90;96.60;;;;;;4975140;28;20081;-84
2021/01/30 00:24:28;;;;;;;15.90;3.85;;;7.80;96.50;;;;;;4976853;28;20359;-84
2021/01/30 00:27:41;;;;;;;3.78;1.92;;;7.80;96.60;;;;;;4975342;28;20038;-85
2021/01/30 00:30:25;;;;;;;4.13;1.80;;;7.90;96.60;;;;;;4984645;28;20509;-85
2021/01/30 00:32:52;;;;;;;4.05;1.63;;;7.80;96.50;;;;;;4974986;28;20471;-83
2021/01/30 00:35:21;;;;;;;6.22;2.83;;;7.80;96.50;;;;;;4974990;28;20045;-83
2021/01/30 00:37:46;;;;;;;8.20;2.90;;;7.70;96.50;;;;;;4974979;28;20035;-83
2021/01/30 00:40:12;;;;;;;6.10;2.22;;;7.70;96.70;;;;;;4974920;28;20432;-84
2021/01/30 00:42:38;;;;;;;6.00;2.72;;;7.70;96.70;;;;;;4975016;28;20074;-84
2021/01/30 00:45:06;;;;;;;6.32;1.88;;;7.70;97.00;;;;;;4974793;28;20408;-83
2021/01/30 00:48:41;;;;;;;;;;;;;;;;;;;;;
2021/01/30 00:51:07;;;;;;;8.00;2.65;;;7.80;96.80;;;;;;4974066;28;20037;-84
2021/01/30 00:53:33;;;;;;;7.50;2.40;;;7.90;96.80;;;;;;4990949;28;20113;-84
2021/01/30 00:55:58;;;;;;;7.43;2.35;;;7.90;96.80;;;;;;4974722;28;20459;-84
2021/01/30 00:58:37;;;;;;;2.75;1.50;;;7.80;96.80;;;;;;4974202;28;20034;-85
2021/01/30 01:01:50;;;;;;;10.30;3.35;;;7.80;96.80;;;;;;4972330;28;20479;-85
2021/01/30 01:05:03;;;;;;;4.35;2.03;;;7.80;96.70;;;;;;4971315;28;20031;-86
2021/01/30 01:07:45;;;;;;;5.60;2.05;;;7.70;96.60;;;;;;4971410;28;20062;-85
2021/01/30 01:10:42;;;;;;;2.55;1.48;;;7.70;96.60;;;;;;4957468;28;20031;-86
2021/01/30 01:13:14;;;;;;;5.85;2.17;;;7.70;96.60;;;;;;4974648;28;20077;-86
2021/01/30 01:19:19;;;;;;;4.75;1.55;;;7.70;96.60;;;;;;4982299;28;20043;-85
2021/01/30 01:21:55;;;;;;;4.68;1.88;;;7.60;96.50;;;;;;4986687;28;20058;-85
2021/01/30 01:24:22;;;;;;;7.55;2.58;;;7.60;96.40;;;;;;4974126;28;20034;-83
2021/01/30 01:26:49;;;;;;;4.90;1.55;;;7.50;96.40;;;;;;4974202;28;20019;-82
2021/01/30 01:29:17;;;;;;;3.72;1.55;;;7.40;96.50;;;;;;4973875;28;20054;-83
2021/01/30 01:31:50;;;;;;;4.57;1.40;;;7.40;96.50;;;;;;4973983;28;20439;-85
2021/01/30 01:34:17;;;;;;;2.25;1.23;;;7.40;96.70;;;;;;4973969;28;20078;-85
2021/01/30 01:36:42;;;;;;;2.53;1.25;;;7.40;96.70;;;;;;4973889;28;20447;-86
2021/01/30 01:39:08;;;;;;;2.67;1.70;;;7.50;96.80;;;;;;4973918;28;20042;-85
2021/01/30 01:41:33;;;;;;;4.65;1.55;;;7.50;97.00;;;;;;4989904;28;20107;-86
2021/01/30 01:43:59;;;;;;;4.93;1.90;;;7.50;96.80;;;;;;4973983;28;21488;-86
2021/01/30 01:46:36;;;;;;;7.28;2.47;;;7.50;96.80;;;;;;4973912;28;20027;-86
2021/01/30 01:49:10;;;;;;;10.45;3.30;;;7.50;96.80;;;;;;4971350;28;20531;-86
2021/01/30 01:51:56;;;;;;;4.80;1.77;;;7.50;97.10;;;;;;4973832;28;20177;-86
2021/01/30 01:54:26;;;;;;;1.73;1.08;;;7.60;96.90;;;;;;4971813;28;20027;-86
2021/01/30 01:57:10;;;;;;;5.00;1.98;;;7.60;96.80;;;;;;4974974;28;20034;-88
2021/01/30 01:59:41;;;;;;;3.63;1.55;;;7.60;97.10;;;;;;4972535;28;20031;-88
2021/01/30 02:02:08;;;;;;;13.30;3.17;;;7.50;96.80;;;;;;4974030;28;20050;-88
2021/01/30 02:04:34;;;;;;;5.82;2.30;;;7.50;96.80;;;;;;4989974;28;20018;-84
2021/01/30 02:07:00;;;;;;;6.80;2.30;;;7.60;96.80;;;;;;4973340;28;20110;-84
2021/01/30 02:09:26;;;;;;;5.07;1.85;;;7.60;97.10;;;;;;4973368;28;20428;-84
2021/01/30 02:12:13;;;;;;;4.40;2.10;;;7.60;96.80;;;;;;4973088;28;20114;-84
2021/01/30 02:14:42;;;;;;;8.65;2.00;;;7.60;96.70;;;;;;4974516;28;20018;-84
2021/01/30 02:17:19;;;;;;;3.58;1.63;;;7.60;96.80;;;;;;4973205;28;20033;-84
2021/01/30 02:20:32;;;;;;;4.30;1.88;;;7.60;96.80;;;;;;4973274;28;20018;-86
2021/01/30 02:23:13;;;;;;;4.78;1.35;;;7.50;96.70;;;;;;4973437;28;20054;-86
2021/01/30 02:25:47;;;;;;;10.95;2.15;;;7.50;96.80;;;;;;4970388;28;20058;-86
2021/01/30 02:29:03;;;;;;;8.80;2.65;;;7.50;96.80;;;;;;4973454;28;20031;-86
2021/01/30 02:31:56;;;;;;;10.00;3.10;;;7.50;96.80;;;;;;4957745;28;20423;-86
2021/01/30 02:35:02;;;;;;;6.32;2.15;;;7.50;96.80;;;;;;4971383;28;20030;-85
2021/01/30 02:37:57;;;;;;;2.70;1.40;;;7.50;96.80;;;;;;4971588;28;20549;-84
2021/01/30 02:40:46;;;;;;;4.75;1.98;;;7.50;96.80;;;;;;4970611;28;20045;-85
2021/01/30 02:43:33;;;;;;;11.15;3.65;;;7.60;96.80;;;;;;4970510;28;20035;-85
2021/01/30 02:46:19;;;;;;;11.27;2.80;;;7.50;96.80;;;;;;4972965;28;20030;-85
2021/01/30 02:49:02;;;;;;;7.45;2.40;;;7.50;96.70;;;;;;4972566;28;20532;-85
2021/01/30 02:51:34;;;;;;;10.75;3.22;;;7.50;96.80;;;;;;4978598;28;20168;-85
2021/01/30 02:54:03;;;;;;;7.90;2.72;;;7.60;96.80;;;;;;4972879;28;20029;-85
2021/01/30 02:56:29;;;;;;;4.03;1.63;;;7.50;96.70;;;;;;4971620;28;20105;-85
2021/01/30 02:59:09;;;;;;;10.52;3.30;;;7.40;96.70;;;;;;4972877;28;20507;-85
2021/01/30 03:01:37;;;;;;;3.25;1.88;;;7.40;96.70;;;;;;4969226;28;20077;-84
2021/01/30 03:04:08;;;;;;;8.20;2.85;;;7.10;96.50;;;;;;4970177;28;20022;-85
2021/01/30 03:07:00;;;;;;;9.75;3.13;;;7.30;96.60;;;;;;4972520;28;20015;-85
2021/01/30 03:09:51;;;;;;;5.85;2.50;;;7.30;96.60;;;;;;4970902;28;20023;-85
2021/01/30 03:12:29;;;;;;;6.15;2.55;;;7.20;96.60;;;;;;4971809;28;20023;-84
2021/01/30 03:15:02;;;;;;;3.42;1.92;;;7.20;96.60;;;;;;4972364;28;20018;-85
2021/01/30 03:17:31;;;;;;;5.03;1.90;;;7.10;96.50;;;;;;4968937;28;20039;-85
2021/01/30 03:20:00;;;;;;;3.75;1.77;;;7.10;96.60;;;;;;4972241;28;20118;-83
2021/01/30 03:22:30;;;;;;;2.17;1.60;;;7.20;96.70;;;;;;4972227;28;20043;-83
2021/01/30 03:24:57;;;;;;;1.45;1.05;;;7.00;96.50;;;;;;4972183;28;20538;-84
2021/01/30 03:27:27;;;;;;;1.08;0.82;;;7.10;96.60;;;;;;4973908;28;20484;-84
2021/01/30 03:29:53;;;;;;;5.10;2.20;;;6.90;96.50;;;;;;4976412;28;20026;-86
2021/01/30 03:32:19;;;;;;;7.60;2.30;;;6.90;96.50;;;;;;4976544;28;20043;-85
2021/01/30 03:34:47;;;;;;;4.68;1.83;;;6.90;96.60;;;;;;4976545;28;20374;-85
2021/01/30 03:37:13;;;;;;;7.85;2.50;;;6.90;96.60;;;;;;4976154;28;20023;-83
2021/01/30 03:39:39;;;;;;;3.35;1.48;;;6.90;96.60;;;;;;4977242;28;20419;-84
2021/01/30 03:42:05;;;;;;;8.57;2.72;;;6.90;96.60;;;;;;4975818;28;20033;-84
2021/01/30 03:44:31;;;;;;;6.95;2.00;;;7.00;96.70;;;;;;4976093;28;20387;-84
2021/01/30 03:46:56;;;;;;;10.13;2.80;;;7.00;96.80;;;;;;4992133;28;20034;-85
2021/01/30 03:49:22;;;;;;;4.15;2.20;;;7.00;96.80;;;;;;4976105;28;20058;-82
2021/01/30 03:51:48;;;;;;;7.13;2.63;;;7.00;96.80;;;;;;4960087;28;20034;-82
2021/01/30 03:54:14;;;;;;;15.77;3.47;;;7.10;96.90;;;;;;4975735;28;20113;-85
2021/01/30 03:56:43;;;;;;;7.38;2.60;;;7.10;96.90;;;;;;4976185;28;20019;-86
2021/01/30 03:59:08;;;;;;;4.28;1.88;;;7.10;96.90;;;;;;4976403;28;20026;-86
2021/01/30 04:01:35;;;;;;;10.05;2.63;;;7.10;96.90;;;;;;4975915;28;20494;-84
2021/01/30 04:04:00;;;;;;;9.60;2.88;;;7.10;96.90;;;;;;4975651;28;20110;-84
2021/01/30 04:06:27;;;;;;;5.57;1.67;;;7.20;96.90;;;;;;4975670;28;20471;-86
2021/01/30 04:08:53;;;;;;;6.60;2.08;;;7.20;97.10;;;;;;4975841;28;20390;-87
2021/01/30 04:11:29;;;;;;;4.38;1.73;;;7.20;96.80;;;;;;4975748;28;20029;-87
2021/01/30 04:13:55;;;;;;;14.15;6.57;;;7.30;97.00;;;;;;4972533;28;20467;-87
2021/01/30 04:16:21;;;;;;;8.25;2.40;;;7.20;96.70;;;;;;4975862;28;20029;-86
2021/01/30 04:18:47;;;;;;;8.77;3.35;;;7.10;96.80;;;;;;4976931;28;20110;-86
2021/01/30 04:21:13;;;;;;;10.80;2.53;;;7.20;96.90;;;;;;4975200;28;20134;-87
2021/01/30 04:23:38;;;;;;;7.22;3.17;;;7.20;96.90;;;;;;4975588;28;20106;-87
2021/01/30 04:26:04;;;;;;;3.53;1.63;;;7.30;96.90;;;;;;4975759;28;20101;-87
2021/01/30 04:28:30;;;;;;;14.45;3.72;;;7.30;96.90;;;;;;4975538;28;20061;-87
2021/01/30 04:30:56;;;;;;;3.80;1.30;;;7.20;96.90;;;;;;4991969;28;20055;-86
2021/01/30 04:33:21;;;;;;;8.10;2.55;;;7.30;96.90;;;;;;4975833;28;20030;-87
2021/01/30 04:35:47;;;;;;;7.28;2.75;;;7.30;96.90;;;;;;4975409;28;20444;-85
2021/01/30 04:38:13;;;;;;;8.30;2.20;;;7.40;96.90;;;;;;4974049;28;20041;-85
2021/01/30 04:40:42;;;;;;;5.90;1.75;;;7.40;96.90;;;;;;4974945;28;20074;-85
2021/01/30 04:43:21;;;;;;;6.70;2.10;;;7.30;96.90;;;;;;4975126;28;20185;-85
2021/01/30 04:46:07;;;;;;;13.60;3.20;;;7.40;96.90;;;;;;4972307;28;20023;-85
2021/01/30 04:48:58;;;;;;;7.45;2.45;;;7.40;96.90;;;;;;4974821;28;20069;-86
2021/01/30 04:51:24;;;;;;;5.10;2.03;;;7.40;97.10;;;;;;4974683;28;20023;-85
2021/01/30 04:54:12;;;;;;;6.78;1.90;;;7.40;96.90;;;;;;4970792;28;20479;-84
2021/01/30 04:56:59;;;;;;;13.85;3.13;;;7.40;96.90;;;;;;4975193;28;20427;-85
2021/01/30 04:59:37;;;;;;;7.53;2.90;;;7.40;96.80;;;;;;4975000;28;20037;-86
2021/01/30 05:02:12;;;;;;;8.43;2.63;;;7.40;96.80;;;;;;4973696;28;20093;-85
2021/01/30 05:05:06;;;;;;;3.95;1.92;;;7.40;96.80;;;;;;4974495;28;20034;-86
2021/01/30 05:07:46;;;;;;;10.65;2.92;;;7.40;96.80;;;;;;4972223;28;20065;-86
2021/01/30 05:10:23;;;;;;;4.00;1.90;;;7.30;96.80;;;;;;4991319;28;20394;-84
2021/01/30 05:13:17;;;;;;;4.13;1.90;;;7.40;96.90;;;;;;4974551;28;20043;-84
2021/01/30 05:15:52;;;;;;;8.18;2.35;;;7.40;96.90;;;;;;4971527;28;20023;-88
2021/01/30 05:18:40;;;;;;;12.00;2.83;;;7.40;96.90;;;;;;4974861;28;20039;-88
2021/01/30 05:21:20;;;;;;;3.97;1.60;;;7.40;96.90;;;;;;4971167;28;20053;-88
2021/01/30 05:23:53;;;;;;;5.68;1.67;;;7.40;96.90;;;;;;4975969;28;20097;-84
2021/01/30 05:26:44;;;;;;;5.63;1.95;;;7.40;96.90;;;;;;4974447;28;20023;-86
2021/01/30 05:29:38;;;;;;;2.08;0.98;;;7.40;96.90;;;;;;4971407;28;20023;-86
2021/01/30 05:32:24;;;;;;;3.47;1.53;;;7.50;96.90;;;;;;4975808;28;20077;-86
2021/01/30 05:34:57;;;;;;;3.00;1.42;;;7.40;97.10;;;;;;4975590;28;20767;-85
2021/01/30 05:37:33;;;;;;;2.70;1.30;;;7.40;96.80;;;;;;4979103;28;20115;-87
2021/01/30 05:40:29;;;;;;;1.35;1.15;;;7.40;96.90;;;;;;4977400;28;20097;-85
2021/01/30 05:43:13;;;;;;;4.35;1.58;;;7.40;96.80;;;;;;4972469;28;20376;-84
2021/01/30 05:45:50;;;;;;;4.03;1.67;;;7.40;96.80;;;;;;4974045;28;20078;-85
2021/01/30 05:48:55;;;;;;;6.60;2.28;;;7.40;96.80;;;;;;4973485;28;20427;-83
2021/01/30 05:52:13;;;;;;;3.80;1.50;;;7.40;96.80;;;;;;4934340;29;20100;-86
2021/01/30 05:54:39;;;;;;;2.55;1.20;;;7.40;96.60;;;;;;4933976;29;20277;-84
2021/01/30 05:57:04;;;;;;;7.32;1.83;;;7.30;96.40;;;;;;4947293;28;20050;-85
2021/01/30 05:59:31;;;;;;;2.38;1.35;;;7.20;96.40;;;;;;4973609;28;20023;-85
2021/01/30 06:02:17;;;;;;;7.55;1.85;;;7.20;96.50;;;;;;4989863;28;20476;-85
2021/01/30 06:04:43;;;;;;;;;;;7.10;96.40;;;;;;4973984;28;20027;-85
2021/01/30 06:07:22;;;;;;;4.18;1.67;;;7.10;96.30;;;;;;4973449;28;19910;-85
2021/01/30 06:09:50;;;;;;;3.80;0.93;;;7.00;96.30;;;;;;4973434;28;20110;-86
2021/01/30 06:12:36;;;;;;;8.65;1.73;;;6.90;96.20;;;;;;4973532;28;20081;-85
2021/01/30 06:15:21;;;;;;;3.08;1.23;;;6.80;96.20;;;;;;4957730;28;20019;-89
2021/01/30 06:17:48;;;;;;;4.68;1.33;;;6.80;96.40;;;;;;4972712;28;20049;-89
2021/01/30 06:20:28;;;;;;;4.00;0.95;;;6.90;96.50;;;;;;4974023;28;20026;-90
2021/01/30 06:23:20;;;;;;;0.90;0.90;;;6.90;96.60;;;;;;4973325;28;20046;-90
2021/01/30 06:25:45;;;;;;;4.85;1.77;;;6.80;96.50;;;;;;4971334;28;20176;-90
2021/01/30 06:28:33;;;;;;;7.63;2.25;;;6.90;96.40;;;;;;4973884;28;20027;-89
2021/01/30 06:31:28;;;;;;;5.15;1.73;;;6.80;96.40;;;;;;4971326;28;20058;-89
2021/01/30 06:34:15;;;;;;;3.03;1.38;;;6.80;96.70;;;;;;4971810;28;20117;-91
2021/01/30 06:36:56;;;;;;;5.28;1.83;;;6.80;96.50;;;;;;4971553;28;20054;-92
2021/01/30 06:39:44;;;;;;;4.15;1.52;;;6.70;96.40;;;;;;4970951;28;20023;-88
2021/01/30 06:42:33;;;;;;;4.82;1.88;;;6.80;96.50;;;;;;4973875;28;20031;-89
2021/01/30 06:45:23;;;;;;;4.50;1.30;;;6.80;96.50;;;;;;4972256;28;20038;-87
2021/01/30 06:48:08;;;;;;;6.47;1.67;;;6.80;96.50;;;;;;4989360;28;20475;-87
2021/01/30 06:50:53;;;;;;;;;;;6.90;96.40;;;;;;4973686;28;20022;-88
2021/01/30 06:53:55;;;;;;;5.72;1.63;;;6.80;96.40;;;;;;4972211;28;20460;-87
2021/01/30 06:56:42;;;;;;;1.65;1.00;;;6.80;96.40;;;;;;4972901;28;20043;-87
2021/01/30 06:59:18;;;;;;;5.03;1.30;;;6.80;96.20;;;;;;4971579;28;20052;-85
2021/01/30 07:01:52;;;;;;;1.52;1.20;;;6.60;96.10;;;;;;4971955;28;20426;-84
2021/01/30 07:04:50;;;;;;;1.17;0.73;;;6.60;96.20;;;;;;4973781;28;20101;-92
2021/01/30 07:14:37;;;;;;;4.63;1.55;;;6.40;96.20;;;;;;4937440;28;20026;-89
2021/01/30 07:24:06;;;;;;;;;;;;;;;;;;;;;
2021/01/30 07:27:24;;;;;;;0.70;0.52;;;6.30;96.20;;;;;;4952921;28;20043;-86
2021/01/30 07:30:15;;;;;;;1.48;1.10;;;6.30;96.20;;;;;;4967159;23;20046;-85
2021/01/30 07:36:41;;;;;;;10.60;3.88;;;6.30;96.20;;;;;;4992809;28;20094;-86
2021/01/30 07:39:59;;;;;;;1.10;0.82;;;6.30;96.40;;;;;;4987933;28;20395;-87
2021/01/30 08:00:26;;;;;;;3.80;1.60;;;6.60;96.50;;;;;;4858092;29;20033;-85
2021/01/30 08:02:57;;;;;;;4.53;1.83;;;6.60;96.60;;;;;;4874513;29;20033;-80
2021/01/30 08:06:13;;;;;;;5.28;1.70;;;6.60;96.50;;;;;;4894468;29;20035;-89
2021/01/30 08:08:49;;;;;;;3.25;1.27;;;6.60;96.30;;;;;;4876635;29;20504;-84
2021/01/30 08:11:24;;;;;;;4.53;1.65;;;6.60;96.40;;;;;;4916695;29;20444;-85
2021/01/30 08:14:52;;;;;;;10.65;2.75;;;6.60;96.50;;;;;;4917918;29;20063;-85
2021/01/30 08:18:21;;;;;;;;;;;;;;;;;;;;;
2021/01/30 08:27:22;;;;;;;8.93;2.50;;;6.80;96.50;;;;;;4946370;29;20027;-84
2021/01/30 08:30:00;;;;;;;13.57;3.42;;;6.90;96.70;;;;;;4993477;28;20494;-84
2021/01/30 08:36:17;;;;;;;15.98;3.60;;;7.00;96.70;;;;;;4995247;28;20036;-86
2021/01/30 08:39:02;;;;;;;9.25;2.67;;;7.10;96.70;;;;;;4976666;28;20030;-88
2021/01/30 08:42:00;;;;;;;8.55;2.17;;;7.30;96.80;;;;;;4981007;28;20026;-87
2021/01/30 08:44:33;;;;;;;8.88;3.00;;;7.20;96.70;;;;;;4975349;28;20026;-88
2021/01/30 08:47:16;;;;;;;9.88;2.97;;;7.50;96.70;;;;;;4978231;28;20483;-88
2021/01/30 08:49:58;;;;;;;5.70;2.08;;;7.30;96.60;;;;;;4976445;28;20117;-88
2021/01/30 08:52:37;;;;;;;5.35;2.67;;;7.30;96.60;;;;;;4978028;28;20015;-88
2021/01/30 08:55:44;;;;;;;8.65;2.45;;;7.40;96.70;;;;;;4977914;28;20041;-85
2021/01/30 08:58:37;;;;;;;3.72;1.83;;;7.50;96.70;;;;;;4919443;29;20036;-86
2021/01/30 09:01:42;;;;;;;12.35;3.65;;;7.60;96.80;;;;;;4918758;29;20031;-86
2021/01/30 09:05:03;;;;;;;9.70;3.17;;;7.70;96.70;;;;;;4920697;29;20079;-86
2021/01/30 09:07:50;;;;;;;13.68;2.63;;;7.80;96.70;;;;;;4916038;29;20050;-83
2021/01/30 09:10:21;;;;;;;13.32;2.78;;;7.90;96.70;;;;;;4918390;29;20032;-87
2021/01/30 09:13:10;;;;;;;15.65;3.20;;;8.10;96.70;;;;;;4930895;29;20079;-88
2021/01/30 09:15:42;;;;;;;5.50;2.28;;;8.00;96.50;;;;;;4892158;28;20476;-92
2021/01/30 09:18:55;;;;;;;11.98;2.88;;;8.10;96.60;;;;;;4977018;28;20038;-85
2021/01/30 09:21:42;;;;;;;10.65;3.08;;;8.10;96.50;;;;;;4976927;28;20018;-84
2021/01/30 09:25:03;;;;;;;12.43;3.40;;;8.20;96.60;;;;;;4993501;28;20104;-85
2021/01/30 09:35:09;;;;;;;15.70;3.03;;;8.30;96.40;;;;;;4937699;29;20058;-85
2021/01/30 09:37:45;;;;;;;6.38;2.38;;;8.10;96.10;;;;;;4900240;29;20521;-88
2021/01/30 09:40:30;;;;;;;8.13;2.67;;;8.20;96.20;;;;;;4909087;29;20183;-83
2021/01/30 09:43:04;;;;;;;9.47;2.50;;;8.00;96.40;;;;;;4972267;28;20549;-83
2021/01/30 09:45:31;;;;;;;11.18;2.70;;;7.90;96.30;;;;;;4977322;28;20622;-83
2021/01/30 09:47:59;;;;;;;13.60;3.00;;;8.10;96.70;;;;;;4976866;28;20030;-83
2021/01/30 09:50:30;;;;;;;10.85;3.92;;;8.00;96.40;;;;;;4976873;28;20037;-84
2021/01/30 09:53:12;;;;;;;7.78;2.20;;;8.10;96.30;;;;;;4977591;28;20383;-87
2021/01/30 09:55:39;;;;;;;8.43;2.65;;;7.90;96.20;;;;;;4973983;28;20032;-83
2021/01/30 10:01:43;;;;;;;5.63;2.30;;;7.80;96.00;;;;;;4993820;28;20033;-85
2021/01/30 10:04:27;;;;;;;10.18;2.75;;;7.60;95.50;;;;;;4973758;28;20025;-93
2021/01/30 10:07:39;;;;;;;4.85;2.13;;;7.50;95.50;;;;;;4978258;28;20030;-90
2021/01/30 10:10:41;;;;;;;9.10;2.50;;;7.20;95.30;;;;;;4976833;28;20383;-86
2021/01/30 10:13:13;;;;;;;5.10;2.05;;;6.80;95.60;;;;;;4943239;28;20031;-87
2021/01/30 10:15:43;;;;;;;10.77;2.25;;;7.40;96.10;;;;;;4976312;28;20105;-87
2021/01/30 10:18:15;;;;;;;4.30;1.70;;;7.20;96.00;;;;;;4976873;28;20030;-87
2021/01/30 10:21:00;;;;;;;8.57;2.72;;;7.30;96.10;;;;;;4976872;28;20471;-86
2021/01/30 10:23:39;;;;;;;7.78;2.33;;;7.30;96.10;;;;;;4965623;28;20031;-87
2021/01/30 10:26:21;;;;;;;16.15;3.58;;;7.40;96.00;;;;;;4993348;28;20037;-87
2021/01/30 10:28:52;;;;;;;14.18;3.42;;;7.40;95.90;;;;;;4991389;28;20026;-88
2021/01/30 10:32:20;;;;;;;;;;;;;;;;;;;;;
2021/01/30 10:35:33;;;;;;;11.43;3.28;;;7.40;95.90;;;;;;4979469;28;20480;-88
2021/01/30 10:39:06;;;;;;;;;;;;;;;;;;;;;
2021/01/30 10:51:37;;;;;;;5.28;1.88;;;6.80;95.40;;;;;;4829748;29;20141;-87
2021/01/30 10:57:27;;;;;;;3.15;1.48;;;6.70;95.90;;;;;;4907728;29;20127;-88
2021/01/30 11:00:23;;;;;;;4.63;1.80;;;6.80;95.60;;;;;;4919475;29;20032;-89
2021/01/30 11:07:25;;;;;;;5.07;2.08;;;6.70;95.60;;;;;;4975054;28;20046;-87
2021/01/30 11:10:30;;;;;;;;;;;;;;;;;;;;;
2021/01/30 11:13:21;;;;;;;6.20;2.57;;;6.60;95.50;;;;;;4973348;28;20034;-88
2021/01/30 11:16:14;;;;;;;5.63;2.35;;;6.60;95.60;;;;;;4972349;28;20364;-88
2021/01/30 11:19:07;;;;;;;4.47;2.28;;;6.60;95.60;;;;;;4954366;28;20521;-88
2021/01/30 11:21:38;;;;;;;6.13;2.50;;;6.70;95.60;;;;;;4949382;28;20039;-94
2021/01/30 11:24:48;;;;;;;5.72;2.22;;;6.70;95.80;;;;;;4962318;28;20479;-89
2021/01/30 11:27:30;;;;;;;7.95;3.60;;;6.70;95.80;;;;;;4962676;28;20023;-87
2021/01/30 11:29:56;;;;;;;7.55;3.47;;;6.70;95.70;;;;;;4972175;28;20031;-90
2021/01/30 11:32:27;;;;;;;6.68;3.10;;;6.80;95.70;;;;;;4960295;28;20498;-89
2021/01/30 11:34:58;;;;;;;7.10;3.15;;;6.70;95.60;;;;;;4972694;28;20166;-88
2021/01/30 11:37:29;;;;;;;8.35;3.30;;;6.70;95.50;;;;;;4972252;28;20037;-88
2021/01/30 11:39:54;;;;;;;7.30;2.55;;;6.70;95.60;;;;;;4972704;28;20038;-88
2021/01/30 11:42:37;;;;;;;7.40;3.00;;;6.70;95.60;;;;;;4971371;28;20015;-89
2021/01/30 11:45:11;;;;;;;8.52;3.60;;;6.40;95.60;;;;;;4972551;28;20031;-89
2021/01/30 11:47:54;;;;;;;;;;;;;;;;;;;;;
2021/01/30 11:54:10;;;;;;;1.85;1.42;;;6.50;95.90;;;;;;4974796;28;20592;-88
2021/01/30 11:59:45;;;;;;;2.92;1.50;;;6.60;95.80;;;;;;4973070;28;20066;-87
2021/01/30 12:02:56;;;;;;;2.67;1.52;;;6.50;95.60;;;;;;4975812;28;20054;-89
2021/01/30 12:05:30;;;;;;;2.25;1.27;;;6.60;95.80;;;;;;4962440;28;20026;-90
2021/01/30 12:07:55;;;;;;;2.50;1.63;;;6.60;95.70;;;;;;4974577;28;20030;-86
2021/01/30 12:10:21;;;;;;;9.88;4.47;;;6.60;95.60;;;;;;4975595;28;20110;-86
2021/01/30 12:12:48;;;;;;;3.28;1.80;;;6.40;95.50;;;;;;4975660;28;20055;-86
2021/01/30 12:15:33;;;;;;;;;;;;;;;;;;;;;
2021/01/30 12:40:11;;;;;;;3.22;1.73;;;6.50;95.80;;;;;;4798954;29;20127;-87
2021/01/30 12:43:51;;;;;;;;;;;;;;;;;;;;;
2021/01/30 13:01:40;;;;;;;8.05;2.40;;;6.20;95.80;;;;;;4772814;29;20061;-87
2021/01/30 13:26:00;;;;;;;8.15;3.08;;;5.80;95.60;;;;;;4702503;30;20029;-86
2021/01/30 13:35:53;;;;;;;6.38;2.58;;;5.80;96.00;;;;;;4730157;30;20128;-87
2021/01/30 13:38:35;;;;;;;5.85;2.67;;;5.90;96.20;;;;;;4723361;30;20047;-88
2021/01/30 13:41:01;;;;;;;6.35;2.60;;;6.20;96.30;;;;;;4746000;29;20036;-84
2021/01/30 14:23:02;;;;;;;8.30;3.20;;;5.60;96.10;;;;;;4966335;28;20054;-90
2021/01/30 14:29:38;;;;;;;12.18;5.82;;;5.50;96.00;;;;;;4974118;28;20029;-89
2021/01/30 14:32:17;;;;;;;10.10;4.55;;;5.40;95.80;;;;;;4958359;28;20026;-86
2021/01/30 14:35:37;;;;;;;13.35;4.95;;;5.40;95.90;;;;;;4941524;28;20042;-87
2021/01/30 14:40:02;;;;;;;;;;;;;;;;;;;;;
2021/01/30 14:46:05;;;;;;;9.48;4.25;;;5.30;95.90;;;;;;4894165;29;20097;-87
2021/01/30 14:48:30;;;;;;;9.27;4.07;;;5.30;95.90;;;;;;4877702;29;20033;-87
2021/01/30 14:50:57;;;;;;;7.57;3.45;;;5.20;95.90;;;;;;4898734;29;20039;-86
2021/01/30 14:53:22;;;;;;;9.02;4.35;;;5.20;95.90;;;;;;4951952;28;20563;-87
2021/01/30 14:55:48;;;;;;;7.25;2.97;;;5.20;95.90;;;;;;4952517;28;20027;-87
2021/01/30 14:58:14;;;;;;;7.85;3.40;;;5.30;95.90;;;;;;4936890;29;20039;-86
2021/01/30 15:00:39;;;;;;;9.45;3.60;;;5.10;95.80;;;;;;4936771;29;20771;-87
2021/01/30 15:03:06;;;;;;;9.57;3.95;;;4.90;95.80;;;;;;4943265;29;20039;-87
2021/01/30 15:05:32;;;;;;;8.00;3.67;;;4.90;95.70;;;;;;4951482;29;20090;-87
2021/01/30 15:07:58;;;;;;;9.63;4.30;;;5.00;95.80;;;;;;4937846;28;20472;-90
2021/01/30 15:10:24;;;;;;;10.15;4.47;;;4.80;95.90;;;;;;4957250;28;20030;-89
2021/01/30 15:12:51;;;;;;;10.93;4.70;;;4.80;96.00;;;;;;4974655;28;20027;-91
2021/01/30 15:18:45;;;;;;;12.15;5.55;;;4.80;96.00;;;;;;4974729;28;20069;-88
2021/01/30 15:21:24;;;;;;;10.60;4.78;;;4.70;96.30;;;;;;4957307;28;20035;-91
2021/01/30 15:25:12;;;;;;;10.02;4.57;;;4.60;96.00;;;;;;4941844;28;20039;-92
2021/01/30 15:27:22;;;;;;;11.50;5.50;;;4.60;95.80;;;;;;4952852;28;20035;-93
2021/01/30 15:29:50;;;;;;;10.73;5.30;;;4.50;95.70;;;;;;4971051;28;20027;-92
2021/01/30 15:32:43;;;;;;;;;;;;;;;;;;;;;
2021/01/30 15:35:52;;;;;;;;;;;;;;;;;;;;;
2021/01/30 15:41:36;;;;;;;12.07;5.18;;;4.10;95.70;;;;;;4967229;28;20026;-92
2021/01/30 15:44:38;;;;;;;;;;;;;;;;;;;;;
2021/01/30 15:47:47;;;;;;;11.60;5.38;;;4.10;95.90;;;;;;4967074;28;20133;-92
2021/01/30 15:50:19;;;;;;;10.23;4.63;;;3.90;95.80;;;;;;4977708;28;20031;-92
2021/01/30 15:52:56;;;;;;;10.82;5.05;;;4.00;95.80;;;;;;4980809;28;20418;-94
2021/01/30 15:55:26;;;;;;;10.40;4.63;;;3.90;95.80;;;;;;4981362;28;20106;-93
2021/01/30 15:57:55;;;;;;;12.77;5.03;;;4.00;95.80;;;;;;4979517;28;20046;-94
2021/01/30 16:00:32;;;;;;;11.30;5.43;;;3.70;95.70;;;;;;4986310;28;20026;-93
2021/01/30 16:03:07;;;;;;;10.70;5.00;;;3.70;95.70;;;;;;4981722;28;20454;-92
2021/01/30 16:05:49;;;;;;;;;;;3.60;95.70;;;;;;4979556;28;20470;-92
2021/01/30 16:08:19;;;;;;;10.90;4.82;;;3.50;95.80;;;;;;4979381;28;19905;-94
2021/01/30 16:10:45;;;;;;;10.90;4.50;;;3.80;95.70;;;;;;4978512;28;20056;-92
2021/01/30 16:13:17;;;;;;;10.75;4.38;;;4.00;96.00;;;;;;4983272;28;20026;-92
2021/01/30 16:15:45;;;;;;;9.95;4.63;;;3.80;96.00;;;;;;4984346;28;20019;-92
2021/01/30 16:18:28;;;;;;;9.98;4.63;;;3.40;96.00;;;;;;4989212;28;20031;-92
2021/01/30 16:20:55;;;;;;;12.05;5.03;;;3.40;95.90;;;;;;4980174;28;20061;-93
2021/01/30 16:23:29;;;;;;;10.68;5.10;;;3.10;95.80;;;;;;4980977;28;20084;-92
2021/01/30 16:25:58;;;;;;;11.30;4.78;;;3.30;95.90;;;;;;4980304;28;20030;-93
2021/01/30 16:28:30;;;;;;;12.38;5.32;;;3.70;96.00;;;;;;4979343;28;20709;-93
2021/01/30 16:30:58;;;;;;;13.85;6.45;;;3.30;95.90;;;;;;5001140;28;20061;-93
2021/01/30 16:33:26;;;;;;;11.75;5.43;;;3.50;95.90;;;;;;4985126;28;20018;-94
2021/01/30 16:35:52;;;;;;;13.32;6.03;;;3.20;95.90;;;;;;4985918;28;20043;-92
2021/01/30 16:38:19;;;;;;;12.50;5.75;;;3.10;96.00;;;;;;4985335;28;20051;-93
2021/01/30 16:40:46;;;;;;;13.43;5.82;;;3.70;96.20;;;;;;4985767;28;20026;-93
2021/01/30 16:43:13;;;;;;;12.85;6.10;;;3.10;96.00;;;;;;4983224;28;20383;-93
2021/01/30 16:45:40;;;;;;;12.55;5.88;;;3.50;96.20;;;;;;4983913;28;20026;-95
2021/01/30 16:48:09;;;;;;;12.55;5.88;;;3.30;96.00;;;;;;4983669;28;20022;-94
2021/01/30 16:50:35;;;;;;;13.02;5.53;;;3.10;96.00;;;;;;4984211;28;20019;-93
2021/01/30 16:53:00;;;;;;;13.43;6.20;;;3.50;96.20;;;;;;4993667;28;20057;-94
2021/01/30 16:55:26;;;;;;;16.95;6.60;;;2.70;96.00;;;;;;4999345;28;20022;-94
2021/01/30 16:57:52;;;;;;;13.88;5.97;;;3.40;96.20;;;;;;4998679;28;20035;-92
2021/01/30 17:01:21;;;;;;;;;;;;;;;;;;;;;
2021/01/30 17:03:59;;;;;;;;;;;;;;;;;;;;;
2021/01/30 17:06:28;;;;;;;13.23;6.25;;;3.00;96.00;;;;;;4997033;28;20031;-91
2021/01/30 17:09:23;;;;;;;15.05;6.18;;;3.10;96.10;;;;;;4982233;28;20491;-90
2021/01/30 17:12:18;;;;;;;35.13;16.85;;;3.00;96.00;;;;;;4981724;28;20486;-89
2021/01/30 17:15:23;;;;;;;16.73;7.65;;;3.00;96.00;;;;;;4966808;28;20038;-90
2021/01/30 17:18:14;;;;;;;14.73;6.93;;;3.00;96.00;;;;;;4980622;28;20526;-90
2021/01/30 17:20:46;;;;;;;15.05;6.93;;;3.00;96.00;;;;;;4981756;28;20765;-89
2021/01/30 17:23:12;;;;;;;15.60;6.75;;;2.90;96.00;;;;;;4981159;28;20647;-80
2021/01/30 17:25:38;;;;;;;17.90;7.85;;;2.90;96.00;;;;;;4977921;28;20058;-83
2021/01/30 17:28:11;;;;;;;17.23;8.07;;;3.00;96.10;;;;;;4969484;28;20065;-83
2021/01/30 17:30:39;;;;;;;16.95;7.25;;;2.90;96.00;;;;;;4980272;28;20026;-83
2021/01/30 17:33:06;;;;;;;14.88;7.45;;;2.90;96.10;;;;;;4996731;28;20038;-83
2021/01/30 17:35:33;;;;;;;16.50;7.95;;;2.90;96.10;;;;;;4980991;28;20114;-83
2021/01/30 17:38:04;;;;;;;14.65;6.70;;;2.80;96.00;;;;;;4979286;28;20043;-82
2021/01/30 17:40:35;;;;;;;13.55;6.55;;;3.00;96.20;;;;;;4980674;28;20019;-83
2021/01/30 17:43:03;;;;;;;18.80;7.45;;;2.80;96.00;;;;;;4963083;28;20030;-83